Latest Weather Observations for Camooweal

IDQ60801

Issued at 7:35 pm EST Friday 22 August 2014 (issued every 30 minutes, with the page automatically refreshed every 10 minutes)

About weather observations | Map of weather stations | Latest weather observations for QLD | Other Formats
Station Details ID: 037010 Name: CAMOOWEAL TOWNSHIP Lat: -19.92 Lon: 138.12 Height: 231.2 m
Data from the previous 72 hours. | See also: Recent months at Camooweal
Date/Time
EST
Temp
°C
App
Temp
°C
Dew
Point
Rel
Hum
%
Delta-T
°C
Wind Press
QNH
hPa
Press
MSL
hPa
Rain
since 9 am
mm
Dir
 
Spd
km/h
Gust
km/h
Spd
kts
Gust
kts
22/07:30pm 22.7 18.3 0.5 23 10.2 NNE 13 15 7 8 1016.8 1016.1 0.0
22/07:00pm 24.5 19.3 0.1 20 11.3 SSE 17 20 9 11 1016.3 1015.6 0.0
22/06:30pm 25.7 20.1 1.1 20 11.7 ESE 20 28 11 15 1016.0 1015.3 0.0
22/06:00pm 26.6 21.4 0.4 18 12.4 NNE 17 20 9 11 1015.7 1015.0 0.0
22/05:30pm 27.1 21.6 0.8 18 12.6 SE 19 30 10 16 1015.6 1014.9 0.0
22/05:00pm 27.5 21.8 0.3 17 13.0 S 20 28 11 15 1015.4 1014.7 0.0
22/04:30pm 27.5 22.0 0.3 17 13.0 SE 19 28 10 15 1015.3 1014.6 0.0
22/04:00pm 27.6 21.0 -0.5 16 13.2 ESE 24 28 13 15 1015.5 1014.8 0.0
22/03:30pm 27.5 21.7 -1.4 15 13.4 SE 19 30 10 16 1015.7 1015.0 0.0
22/03:00pm 26.9 21.4 -1.9 15 13.1 SE 17 28 9 15 1016.0 1015.3 0.0
22/02:30pm 27.4 21.5 -0.6 16 13.1 SSE 20 30 11 16 1016.4 1015.7 0.0
22/02:00pm 26.9 21.2 -1.0 16 12.9 SE 19 32 10 17 1016.9 1016.2 0.0
22/01:30pm 26.4 20.4 -1.4 16 12.7 SE 20 35 11 19 1017.4 1016.7 0.0
22/01:00pm 25.7 19.8 -2.0 16 12.5 ESE 19 28 10 15 1017.8 1017.1 0.0
22/12:30pm 25.5 19.8 -0.5 18 12.0 SE 19 30 10 16 1018.3 1017.7 0.0
22/12:00pm 25.5 19.4 0.2 19 11.8 SE 22 35 12 19 1018.8 1018.2 0.0
22/11:30am 24.5 17.7 0.8 21 11.2 SE 26 33 14 18 1019.5 1018.9 0.0
22/11:00am 23.6 16.9 1.3 23 10.5 SE 26 35 14 19 1020.1 1019.4 0.0
22/10:30am 21.8 15.4 0.9 25 9.7 SE 24 35 13 19 1020.4 1019.7 0.0
22/10:00am 20.0 14.6 1.0 28 8.6 SE 19 26 10 14 1020.7 1020.0 0.0
22/09:30am 17.6 12.0 -0.2 30 7.8 SE 19 26 10 14 1020.8 1020.1 0.0
22/09:00am 15.6 10.4 -0.2 34 6.7 SSE 17 24 9 13 1020.8 1020.1 0.0
22/08:30am 12.2 8.3 -1.7 38 5.6 S 9 13 5 7 1020.7 1020.0 0.0
22/08:00am 8.7 5.0 -3.2 43 4.4 SSW 7 9 4 5 1020.5 1019.8 0.0
22/07:30am 6.8 3.0 -4.0 46 3.9 SSW 7 9 4 5 1020.3 1019.6 0.0
22/07:00am 7.0 3.2 -4.1 45 3.9 SSW 7 9 4 5 1019.9 1019.2 0.0
22/06:30am 7.2 3.4 -3.6 46 3.9 SSW 7 9 4 5 1019.6 1019.0 0.0
22/06:00am 7.6 3.8 -3.9 44 4.1 SSW 7 9 4 5 1019.3 1018.7 0.0
22/05:30am 7.9 4.0 -4.2 42 4.4 SSW 7 7 4 4 1019.0 1018.4 0.0
22/05:00am 8.6 4.5 -3.3 43 4.4 SW 9 9 5 5 1018.7 1018.1 0.0
22/04:30am 9.6 5.1 -3.0 41 4.8 SSW 11 11 6 6 1018.7 1018.1 0.0
22/04:00am 10.1 6.0 -3.2 39 5.0 SSW 9 11 5 6 1018.6 1018.0 0.0
22/03:30am 11.1 7.0 -3.4 36 5.5 S 9 13 5 7 1018.7 1018.1 0.0
22/03:00am 13.2 8.4 -2.7 33 6.3 S 13 19 7 10 1018.6 1018.0 0.0
22/02:30am 14.1 8.5 -2.8 31 6.7 ESE 17 24 9 13 1018.8 1018.2 0.0
22/02:00am 14.3 9.1 -2.6 31 6.8 SSE 15 22 8 12 1019.0 1018.4 0.0
22/01:30am 14.1 9.2 -3.2 30 6.8 S 13 19 7 10 1019.2 1018.6 0.0
22/01:00am 14.3 9.4 -3.0 30 6.9 ESE 13 17 7 9 1019.3 1018.7 0.0
22/12:30am 15.2 10.3 -3.2 28 7.4 SE 13 19 7 10 1019.4 1018.8 0.0
22/12:00am 15.2 10.3 -3.6 27 7.4 S 13 19 7 10 1019.2 1018.6 0.0
 
Date/Time
EST
Temp
°C
App
Temp
°C
Dew
Point
Rel
Hum
%
Delta-T
°C
Wind Press
QNH
hPa
Press
MSL
hPa
Rain
since 9 am
mm
Dir
 
Spd
km/h
Gust
km/h
Spd
kts
Gust
kts
21/11:30pm 16.1 10.4 -3.9 25 8.0 S 17 22 9 12 1019.2 1018.6 0.0
21/11:00pm 16.8 10.6 -4.4 23 8.4 S 19 26 10 14 1019.3 1018.7 0.0
21/10:30pm 17.2 11.4 -4.7 22 8.7 S 17 22 9 12 1019.2 1018.6 0.0
21/10:00pm 17.4 11.6 -5.1 21 8.8 S 17 22 9 12 1019.0 1018.4 0.0
21/09:30pm 17.7 11.4 -5.5 20 9.1 S 19 24 10 13 1018.9 1018.3 0.0
21/09:00pm 17.0 11.5 -5.5 21 8.7 S 15 19 8 10 1018.7 1018.1 0.0
21/08:30pm 16.7 11.2 -5.7 21 8.6 S 15 17 8 9 1018.5 1017.9 0.0
21/08:00pm 16.8 12.0 -6.3 20 8.8 S 11 13 6 7 1018.3 1017.7 0.0
21/07:30pm 17.7 12.5 -6.2 19 9.2 S 13 13 7 7 1017.7 1017.0 0.0
21/07:00pm 20.0 14.8 -5.8 17 10.2 S 13 15 7 8 1017.3 1016.6 0.0
21/06:30pm 22.3 15.9 -6.5 14 11.6 S 19 24 10 13 1016.9 1016.2 0.0
21/06:00pm 23.3 16.8 -5.7 14 11.9 S 20 28 11 15 1016.5 1015.8 0.0
21/05:30pm 24.0 17.7 -6.1 13 12.4 SSE 19 24 10 13 1016.2 1015.5 0.0
21/05:00pm 24.5 17.3 -5.7 13 12.6 S 24 28 13 15 1016.1 1015.4 0.0
21/04:30pm 24.6 18.4 -4.6 14 12.4 S 19 24 10 13 1016.0 1015.3 0.0
21/04:00pm 24.2 17.9 -5.9 13 12.4 SSE 19 30 10 16 1016.0 1015.3 0.0
21/03:30pm 24.8 19.5 -3.6 15 12.3 S 15 24 8 13 1015.9 1015.2 0.0
21/03:00pm 23.9 17.9 -3.4 16 11.8 SE 19 26 10 14 1016.1 1015.4 0.0
21/02:30pm 23.9 18.1 -4.3 15 12.0 SE 17 20 9 11 1016.6 1015.9 0.0
21/02:00pm 23.7 18.3 -4.4 15 11.9 SE 15 28 8 15 1016.8 1016.1 0.0
21/01:30pm 23.1 17.4 -4.1 16 11.5 SE 17 30 9 16 1017.3 1016.6 0.0
21/01:00pm 22.9 17.0 -2.6 18 11.1 S 19 30 10 16 1017.9 1017.2 0.0
21/12:30pm 21.6 15.4 -3.0 19 10.5 SSE 20 28 11 15 1018.4 1017.8 0.0
21/12:00pm 21.9 16.0 -0.8 22 10.1 SSE 20 32 11 17 1018.9 1018.3 0.0
21/11:30am 20.6 13.9 -1.2 23 9.6 SE 24 33 13 18 1019.5 1018.9 0.0
21/11:00am 20.2 13.6 -0.4 25 9.1 SE 24 33 13 18 1020.0 1019.3 0.0
21/10:30am 18.7 12.9 -1.2 26 8.6 SSE 19 26 10 14 1020.4 1019.7 0.0
21/10:00am 16.8 10.3 -2.3 27 7.9 SSE 22 30 12 16 1020.6 1019.9 0.0
21/09:30am 15.5 9.3 -2.9 28 7.4 SSE 20 26 11 14 1020.5 1019.8 0.0
21/09:00am 14.2 7.6 -3.1 30 6.8 SSE 22 28 12 15 1020.2 1019.5 0.0
21/08:30am 11.8 6.1 -3.5 34 5.9 S 17 20 9 11 1020.0 1019.3 0.0
21/08:00am 7.9 3.2 -4.8 40 4.5 SSW 11 13 6 7 1020.0 1019.3 0.0
21/07:30am 5.7 1.4 -4.7 47 3.6 SSW 9 11 5 6 1019.8 1019.1 0.0
21/07:00am 5.1 0.3 -6.1 44 3.7 SSW 11 13 6 7 1019.3 1018.7 0.0
21/06:30am 5.8 1.1 -5.2 45 3.8 SSW 11 13 6 7 1019.2 1018.6 0.0
21/06:00am 6.2 1.9 -4.8 45 3.8 SSW 9 9 5 5 1019.0 1018.4 0.0
21/05:30am 6.7 2.0 -5.0 43 4.1 SSW 11 13 6 7 1018.9 1018.3 0.0
21/05:00am 6.6 1.8 -5.7 41 4.2 S 11 13 6 7 1018.9 1018.3 0.0
21/04:30am 7.3 2.5 -5.7 39 4.5 SSW 11 13 6 7 1018.8 1018.2 0.0
21/04:00am 7.8 3.1 -4.9 40 4.5 SSW 11 13 6 7 1018.7 1018.1 0.0
21/03:30am 8.2 3.5 -4.9 39 4.7 SSW 11 11 6 6 1018.9 1018.3 0.0
21/03:00am 8.6 4.3 -5.2 37 4.9 SSW 9 11 5 6 1018.9 1018.3 0.0
21/02:30am 9.8 5.1 -5.3 34 5.4 SSW 11 15 6 8 1019.2 1018.6 0.0
21/02:00am 12.9 7.4 -5.1 28 6.7 S 15 20 8 11 1019.3 1018.7 0.0
21/01:30am 13.3 7.5 -4.8 28 6.8 S 17 20 9 11 1019.4 1018.8 0.0
21/01:00am 13.3 7.8 -5.3 27 6.9 S 15 20 8 11 1019.5 1018.9 0.0
21/12:30am 14.3 8.4 -5.4 25 7.4 S 17 24 9 13 1019.5 1018.9 0.0
21/12:00am 15.0 8.6 -4.8 25 7.6 S 20 26 11 14 1019.4 1018.8 0.0
 
Date/Time
EST
Temp
°C
App
Temp
°C
Dew
Point
Rel
Hum
%
Delta-T
°C
Wind Press
QNH
hPa
Press
MSL
hPa
Rain
since 9 am
mm
Dir
 
Spd
km/h
Gust
km/h
Spd
kts
Gust
kts
20/11:30pm 14.4 8.6 -4.8 26 7.4 S 17 24 9 13 1019.3 1018.7 0.0
20/11:00pm 13.3 7.8 -5.3 27 6.9 S 15 19 8 10 1019.3 1018.7 0.0
20/10:30pm 12.7 8.0 -5.3 28 6.7 S 11 13 6 7 1019.3 1018.7 0.0
20/10:00pm 13.7 9.1 -4.0 29 6.8 SSW 11 15 6 8 1019.4 1018.8 0.0
20/09:30pm 14.6 10.0 -4.2 27 7.3 SSW 11 13 6 7 1019.3 1018.7 0.0
20/09:00pm 16.1 10.7 -4.4 24 8.0 SSW 15 17 8 9 1019.0 1018.4 0.0
20/08:30pm 17.1 11.4 -3.6 24 8.4 SSW 17 20 9 11 1018.7 1018.1 0.0
20/08:00pm 17.6 12.3 -3.2 24 8.5 SSW 15 17 8 9 1018.2 1017.6 0.0
20/07:30pm 17.4 12.9 -3.4 24 8.5 SSW 11 13 6 7 1017.7 1017.0 0.0
20/07:00pm 19.0 14.6 -2.6 23 9.1 SSW 11 13 6 7 1017.2 1016.5 0.0
20/06:30pm 21.0 15.8 -2.8 20 10.2 SSW 15 20 8 11 1016.9 1016.2 0.0
20/06:00pm 22.3 17.4 -3.1 18 10.9 S 13 20 7 11 1016.7 1016.0 0.0
20/05:30pm 22.8 18.0 -2.7 18 11.1 SSE 13 22 7 12 1016.5 1015.8 0.0
20/05:00pm 23.2 18.0 -2.4 18 11.2 SSW 15 24 8 13 1016.3 1015.6 0.0
20/04:30pm 23.5 19.0 -2.9 17 11.5 SSW 11 24 6 13 1016.2 1015.5 0.0
20/04:00pm 24.0 18.2 -1.8 18 11.5 SSW 19 24 10 13 1016.1 1015.4 0.0
20/03:30pm 23.8 19.1 -1.9 18 11.4 SSE 13 24 7 13 1016.3 1015.6 0.0
20/03:00pm 23.7 19.0 -2.0 18 11.4 SW 13 24 7 13 1016.5 1015.8 0.0
20/02:30pm 23.5 19.5 -2.2 18 11.3 SSW 9 30 5 16 1016.9 1016.2 0.0
20/02:00pm 22.7 18.3 -2.8 18 11.0 S 11 20 6 11 1017.5 1016.8 0.0
20/01:30pm 22.4 17.3 -2.3 19 10.8 ESE 15 22 8 12 1018.0 1017.4 0.0
20/01:00pm 22.5 16.4 -2.2 19 10.8 S 20 28 11 15 1018.5 1017.9 0.0
20/12:30pm 22.4 16.4 -1.6 20 10.6 S 20 26 11 14 1019.0 1018.4 0.0
20/12:00pm 22.2 16.4 -1.8 20 10.5 ESE 19 28 10 15 1019.5 1018.9 0.0
20/11:30am 21.7 15.2 -2.2 20 10.4 SE 22 28 12 15 1020.0 1019.3 0.0
20/11:00am 20.4 13.1 -2.6 21 9.8 E 26 32 14 17 1020.4 1019.7 0.0
20/10:30am 19.5 13.4 -2.2 23 9.2 SE 20 30 11 16 1020.6 1019.9 0.0
20/10:00am 18.9 11.8 -1.5 25 8.7 SE 26 35 14 19 1020.8 1020.1 0.0
20/09:30am 17.6 10.8 -1.6 27 8.1 SE 24 32 13 17 1020.9 1020.2 0.0
20/09:00am 15.8 9.8 -1.7 30 7.2 SE 20 30 11 16 1021.0 1020.3 0.0
20/08:30am 13.2 8.5 -1.9 35 6.1 SE 13 19 7 10 1020.8 1020.1 0.0
20/08:27am 12.9 8.6 -1.8 36 5.9 SE 11 17 6 9 1020.8 1020.1 0.0
20/08:00am 7.9 4.2 -3.3 45 4.1 S 7 9 4 5 1020.6 1019.9 0.0
20/07:30am 6.0 1.8 -3.6 50 3.4 SSW 9 11 5 6 1020.3 1019.6 0.0
20/07:00am 5.9 1.7 -4.0 49 3.5 SSW 9 11 5 6 1020.3 1019.6 0.0
20/06:30am 6.4 1.8 -4.1 47 3.7 SSW 11 13 6 7 1019.9 1019.2 0.0
20/06:00am 6.4 1.8 -3.8 48 3.6 SSW 11 11 6 6 1019.3 1018.7 0.0
20/05:30am 7.2 2.7 -3.3 47 3.8 SSW 11 13 6 7 1019.1 1018.5 0.0
20/05:00am 7.2 2.7 -3.3 47 3.8 SSW 11 11 6 6 1018.9 1018.3 0.0
20/04:30am 7.9 3.8 -2.7 47 4.0 SSW 9 13 5 7 1018.9 1018.3 0.0
20/04:00am 8.6 4.2 -2.1 47 4.1 SSW 11 13 6 7 1018.7 1018.1 0.0
20/03:30am 8.8 4.8 -2.5 45 4.3 S 9 11 5 6 1018.6 1018.0 0.0
20/03:00am 9.6 5.2 -2.3 43 4.6 S 11 13 6 7 1018.8 1018.2 0.0
20/02:30am 10.6 6.6 -2.4 40 5.0 SSE 9 11 5 6 1018.8 1018.2 0.0
20/02:00am 11.6 7.2 -2.6 37 5.5 S 11 15 6 8 1018.9 1018.3 0.0
20/01:30am 13.3 8.1 -2.6 33 6.3 S 15 19 8 10 1019.0 1018.4 0.0
20/01:00am 14.5 9.0 -2.4 31 6.8 S 17 24 9 13 1019.0 1018.4 0.0
20/12:30am 15.3 9.5 -1.7 31 7.0 E 19 24 10 13 1019.1 1018.5 0.0
20/12:00am 15.6 9.6 -1.9 30 7.2 ESE 20 28 11 15 1019.0 1018.4 0.0
 
Date/Time
EST
Temp
°C
App
Temp
°C
Dew
Point
Rel
Hum
%
Delta-T
°C
Wind Press
QNH
hPa
Press
MSL
hPa
Rain
since 9 am
mm
Dir
 
Spd
km/h
Gust
km/h
Spd
kts
Gust
kts
19/11:30pm 16.3 10.5 -1.3 30 7.4 ESE 19 26 10 14 1018.9 1018.3 0.0
19/11:00pm 16.5 10.6 -1.1 30 7.4 SE 20 24 11 13 1019.0 1018.4 0.0
19/10:30pm 16.9 11.2 -0.8 30 7.6 SSE 19 24 10 13 1019.0 1018.4 0.0
19/10:00pm 16.9 11.5 -1.7 28 7.8 SSE 17 20 9 11 1018.8 1018.2 0.0
19/09:30pm 17.4 12.4 -1.3 28 8.0 S 15 20 8 11 1018.7 1018.1 0.0
19/09:00pm 17.5 12.5 -1.2 28 8.0 S 15 19 8 10 1018.5 1017.9 0.0
19/08:30pm 16.6 12.0 -1.0 30 7.5 S 13 15 7 8 1018.3 1017.7 0.0
19/08:00pm 17.1 12.5 -1.1 29 7.7 S 13 15 7 8 1018.0 1017.4 0.0

Other Formats:

Comma delimited format used in spreadsheet applications
http://www.bom.gov.au/fwo/IDQ60801/IDQ60801.94255.axf

JavaScript Object Notation format (JSON) in row-major order
http://www.bom.gov.au/fwo/IDQ60801/IDQ60801.94255.json